Time;durP1;ratioP1;P1;durP2;ratioP2;P2;SDS_P1;SDS_P2;PMS_P1;PMS_P2;Temp;Humidity;BMP_temperature;BMP_pressure;BME280_temperature;BME280_humidity;BME280_pressure;Samples;Min_cycle;Max_cycle;Signal;HPM_P1;HPM_P2
2022/11/10 00:00:21;;;;;;;8.57;2.30;;;11.40;85.00;;;;;;4882280;29;20436;-75
2022/11/10 00:02:47;;;;;;;7.78;2.40;;;11.40;85.00;;;;;;4899126;29;20497;-75
2022/11/10 00:05:14;;;;;;;9.55;2.30;;;11.40;85.00;;;;;;4899125;29;20025;-75
2022/11/10 00:07:40;;;;;;;5.72;2.20;;;11.40;85.10;;;;;;4899103;29;20124;-75
2022/11/10 00:10:07;;;;;;;8.18;2.33;;;11.40;85.20;;;;;;4898698;29;20076;-75
2022/11/10 00:12:33;;;;;;;7.72;2.15;;;11.40;85.20;;;;;;4881657;29;20532;-75
2022/11/10 00:17:59;;;;;;;7.68;2.22;;;11.30;85.30;;;;;;4877074;29;20051;-75
2022/11/10 00:20:25;;;;;;;8.30;2.45;;;11.30;85.30;;;;;;4882045;29;20135;-75
2022/11/10 00:22:50;;;;;;;10.68;2.47;;;11.30;85.40;;;;;;4881726;29;20119;-75
2022/11/10 00:25:16;;;;;;;9.82;2.50;;;11.30;85.40;;;;;;4881908;29;20033;-75
2022/11/10 00:27:41;;;;;;;7.82;2.40;;;11.30;86.00;;;;;;4898615;29;20037;-75
2022/11/10 00:30:07;;;;;;;8.63;2.42;;;11.30;85.40;;;;;;4881812;29;20064;-75
2022/11/10 00:32:33;;;;;;;9.38;2.60;;;11.20;85.40;;;;;;4898667;29;20450;-75
2022/11/10 00:34:58;;;;;;;6.82;2.40;;;11.20;85.40;;;;;;4898774;29;20024;-75
2022/11/10 00:37:24;;;;;;;6.13;2.10;;;11.20;85.40;;;;;;4898347;29;20033;-75
2022/11/10 00:39:49;;;;;;;6.80;2.20;;;11.20;85.50;;;;;;4881658;29;20068;-75
2022/11/10 00:42:15;;;;;;;7.97;2.10;;;11.20;85.50;;;;;;4881364;29;20097;-75
2022/11/10 00:44:41;;;;;;;8.93;2.40;;;11.20;85.50;;;;;;4898268;29;20035;-75
2022/11/10 00:47:06;;;;;;;6.57;2.50;;;11.20;85.50;;;;;;4898249;29;20033;-76
2022/11/10 00:49:32;;;;;;;5.03;2.20;;;11.20;85.60;;;;;;4898137;29;20048;-75
2022/11/10 00:51:57;;;;;;;12.40;2.85;;;11.10;85.60;;;;;;4897983;29;20393;-76
2022/11/10 00:54:23;;;;;;;7.95;2.20;;;11.10;85.60;;;;;;4880924;29;20028;-75
2022/11/10 00:56:49;;;;;;;7.45;2.05;;;11.10;85.60;;;;;;4881286;29;20032;-75
2022/11/10 00:59:14;;;;;;;7.90;2.55;;;11.10;85.60;;;;;;4898189;29;20146;-75
2022/11/10 01:01:40;;;;;;;8.55;2.40;;;11.10;85.70;;;;;;4897996;29;20029;-75
2022/11/10 01:04:06;;;;;;;8.07;2.40;;;11.10;85.70;;;;;;4880672;29;20032;-75
2022/11/10 01:06:31;;;;;;;9.32;2.28;;;11.10;85.70;;;;;;4898087;29;20036;-75
2022/11/10 01:08:57;;;;;;;7.97;2.40;;;11.10;85.70;;;;;;4881088;29;20124;-76
2022/11/10 01:11:25;;;;;;;5.28;1.98;;;11.10;85.80;;;;;;4897555;29;20044;-75
2022/11/10 01:13:52;;;;;;;7.28;2.10;;;11.00;85.70;;;;;;4880965;29;20036;-75
2022/11/10 01:16:24;;;;;;;8.38;2.40;;;11.00;85.80;;;;;;4897957;29;20547;-75
2022/11/10 01:18:52;;;;;;;9.98;2.58;;;11.00;85.80;;;;;;4880965;29;20143;-75
2022/11/10 01:21:17;;;;;;;7.00;2.15;;;11.00;85.80;;;;;;4880918;29;20123;-76
2022/11/10 01:23:43;;;;;;;7.50;2.30;;;11.00;85.90;;;;;;4897661;29;20131;-75
2022/11/10 01:26:09;;;;;;;7.35;2.25;;;11.00;85.90;;;;;;4880161;29;20056;-74
2022/11/10 01:28:36;;;;;;;8.57;2.40;;;11.00;85.90;;;;;;4897424;29;20512;-75
2022/11/10 01:31:07;;;;;;;7.60;2.22;;;11.00;86.00;;;;;;4880492;29;20088;-75
2022/11/10 01:33:33;;;;;;;8.23;2.58;;;11.00;86.00;;;;;;4880403;29;20099;-75
2022/11/10 01:35:59;;;;;;;7.05;2.50;;;10.90;86.00;;;;;;4897327;29;20493;-76
2022/11/10 01:38:31;;;;;;;7.65;2.53;;;11.00;86.00;;;;;;4897690;29;20096;-75
2022/11/10 01:40:58;;;;;;;11.30;2.65;;;10.90;86.00;;;;;;4897331;29;20446;-75
2022/11/10 01:43:24;;;;;;;8.23;2.20;;;11.00;86.10;;;;;;4897264;29;20486;-75
2022/11/10 01:45:54;;;;;;;7.53;2.35;;;10.90;86.00;;;;;;4880884;29;20025;-76
2022/11/10 01:48:45;;;;;;;9.50;2.42;;;10.90;86.10;;;;;;4880214;29;20526;-75
2022/11/10 01:51:27;;;;;;;9.35;2.60;;;10.90;86.10;;;;;;4897230;29;20080;-75
2022/11/10 01:54:05;;;;;;;8.88;2.40;;;10.90;86.70;;;;;;4896943;29;20056;-75
2022/11/10 01:56:35;;;;;;;7.05;2.30;;;10.90;86.10;;;;;;4897074;29;20040;-75
2022/11/10 01:59:07;;;;;;;8.35;2.40;;;10.90;86.10;;;;;;4896811;29;20036;-76
2022/11/10 02:01:32;;;;;;;6.93;1.92;;;10.90;86.20;;;;;;4879943;29;20028;-75
2022/11/10 02:04:02;;;;;;;7.18;2.45;;;10.90;86.20;;;;;;4896706;29;20096;-75
2022/11/10 02:06:32;;;;;;;8.50;2.78;;;10.90;86.30;;;;;;4896772;29;20437;-75
2022/11/10 02:08:58;;;;;;;10.20;3.10;;;10.90;86.30;;;;;;4879786;29;20052;-75
2022/11/10 02:11:24;;;;;;;11.20;2.60;;;10.90;86.30;;;;;;4896579;29;20041;-75
2022/11/10 02:13:50;;;;;;;7.45;2.28;;;10.90;86.30;;;;;;4896580;29;20051;-75
2022/11/10 02:16:17;;;;;;;10.57;2.75;;;10.90;86.30;;;;;;4896578;29;20040;-75
2022/11/10 02:18:42;;;;;;;7.18;2.40;;;10.90;86.30;;;;;;4896682;29;20297;-75
2022/11/10 02:21:08;;;;;;;10.48;2.40;;;10.90;86.30;;;;;;4879667;29;20500;-75
2022/11/10 02:23:34;;;;;;;9.25;2.47;;;10.90;86.30;;;;;;4896347;29;20493;-75
2022/11/10 02:26:02;;;;;;;8.23;2.58;;;10.90;86.30;;;;;;4896606;29;20043;-75
2022/11/10 02:28:31;;;;;;;6.43;2.20;;;10.90;86.30;;;;;;4879580;29;20119;-75
2022/11/10 02:30:57;;;;;;;7.90;2.22;;;11.00;86.30;;;;;;4896382;29;20033;-76
2022/11/10 02:33:22;;;;;;;8.43;2.35;;;11.00;86.90;;;;;;4896258;29;20092;-75
2022/11/10 02:35:48;;;;;;;9.50;2.38;;;11.00;86.20;;;;;;4879437;29;20032;-75
2022/11/10 02:38:13;;;;;;;8.15;2.00;;;11.00;86.20;;;;;;4879446;29;20036;-75
2022/11/10 02:40:39;;;;;;;6.50;2.20;;;11.10;86.30;;;;;;4879640;29;20148;-75
2022/11/10 02:43:08;;;;;;;10.65;2.47;;;11.10;86.20;;;;;;4896547;29;20091;-75
2022/11/10 02:45:33;;;;;;;10.27;2.17;;;11.10;86.20;;;;;;4896316;29;20060;-75
2022/11/10 02:47:59;;;;;;;8.38;2.38;;;11.10;86.10;;;;;;4896556;29;20613;-75
2022/11/10 02:50:24;;;;;;;7.25;2.25;;;11.10;86.00;;;;;;4896287;29;20506;-75
2022/11/10 02:52:50;;;;;;;13.75;2.60;;;11.20;86.00;;;;;;4896337;29;20056;-75
2022/11/10 02:55:16;;;;;;;9.10;2.67;;;11.20;86.00;;;;;;4879416;29;20119;-74
2022/11/10 02:57:41;;;;;;;7.72;2.50;;;11.30;86.10;;;;;;4879418;29;20033;-75
2022/11/10 03:00:08;;;;;;;6.95;2.08;;;11.30;86.00;;;;;;4896211;29;20048;-75
2022/11/10 03:02:33;;;;;;;10.48;2.50;;;11.30;86.00;;;;;;4896070;29;20505;-75
2022/11/10 03:04:59;;;;;;;9.57;2.75;;;11.30;86.10;;;;;;4896153;29;20082;-75
2022/11/10 03:07:25;;;;;;;10.30;2.45;;;11.30;86.10;;;;;;4888391;29;20426;-75
2022/11/10 03:09:50;;;;;;;6.60;2.30;;;11.20;86.00;;;;;;4879128;29;20116;-76
2022/11/10 03:12:16;;;;;;;7.43;2.45;;;11.20;86.10;;;;;;4895847;29;20084;-75
2022/11/10 03:14:42;;;;;;;8.38;2.20;;;11.20;86.10;;;;;;4896153;29;20055;-75
2022/11/10 03:17:07;;;;;;;7.55;2.08;;;11.20;86.10;;;;;;4879413;29;20025;-75
2022/11/10 03:19:33;;;;;;;6.55;2.30;;;11.20;86.20;;;;;;4896162;29;20084;-76
2022/11/10 03:21:59;;;;;;;6.68;2.45;;;11.10;86.20;;;;;;4896244;29;20056;-76
2022/11/10 03:24:24;;;;;;;9.40;2.55;;;11.10;86.30;;;;;;4896002;29;20028;-76
2022/11/10 03:26:50;;;;;;;9.35;2.70;;;11.10;86.40;;;;;;4896201;29;20440;-75
2022/11/10 03:29:15;;;;;;;7.60;2.30;;;11.00;86.50;;;;;;4895884;29;20069;-71
2022/11/10 03:31:41;;;;;;;9.35;2.30;;;11.00;86.60;;;;;;4879289;29;20024;-72
2022/11/10 03:34:06;;;;;;;8.15;2.53;;;10.90;86.70;;;;;;4879076;29;20039;-72
2022/11/10 03:36:32;;;;;;;8.95;2.58;;;10.90;86.70;;;;;;4879157;29;20031;-71
2022/11/10 03:38:58;;;;;;;9.50;3.05;;;10.90;86.70;;;;;;4895823;29;20033;-72
2022/11/10 03:41:23;;;;;;;8.65;2.38;;;10.80;86.70;;;;;;4878979;29;20032;-72
2022/11/10 03:43:49;;;;;;;12.77;2.50;;;10.80;86.70;;;;;;4895859;29;20136;-71
2022/11/10 03:46:15;;;;;;;9.52;2.97;;;10.80;86.80;;;;;;4878873;29;20051;-70
2022/11/10 03:48:41;;;;;;;7.65;2.30;;;10.80;86.90;;;;;;4895924;29;20503;-72
2022/11/10 03:51:06;;;;;;;9.98;2.45;;;10.80;86.90;;;;;;4881966;29;20111;-72
2022/11/10 03:53:32;;;;;;;7.20;2.38;;;10.80;87.00;;;;;;4882448;29;20032;-72
2022/11/10 03:56:02;;;;;;;9.55;2.38;;;10.70;87.00;;;;;;4882267;29;20029;-72
2022/11/10 03:58:28;;;;;;;10.27;2.47;;;10.70;87.00;;;;;;4899067;29;20040;-72
2022/11/10 04:00:54;;;;;;;8.50;2.17;;;10.70;87.10;;;;;;4882266;29;20028;-71
2022/11/10 04:03:20;;;;;;;8.85;2.40;;;10.70;87.20;;;;;;4882123;29;20484;-71
2022/11/10 04:15:40;;;;;;;7.43;2.10;;;10.70;87.20;;;;;;4899228;29;20051;-71
2022/11/10 04:16:44;;;;;;;7.15;2.35;;;10.60;87.10;;;;;;4899051;29;20092;-71
2022/11/10 04:19:09;;;;;;;7.22;2.53;;;10.60;87.20;;;;;;4898998;29;20032;-70
2022/11/10 04:21:35;;;;;;;7.75;2.17;;;10.60;87.30;;;;;;4898954;29;20055;-72
2022/11/10 04:24:00;;;;;;;8.70;2.65;;;10.60;87.30;;;;;;4898766;29;20136;-71
2022/11/10 04:26:29;;;;;;;9.90;2.25;;;10.60;87.30;;;;;;4881805;29;20057;-72
2022/11/10 04:29:00;;;;;;;11.25;2.88;;;10.60;87.30;;;;;;4881735;29;20055;-72
2022/11/10 04:31:28;;;;;;;10.52;2.60;;;10.50;87.30;;;;;;4898478;29;20033;-72
2022/11/10 04:33:55;;;;;;;9.63;2.63;;;10.60;87.40;;;;;;4898520;29;20036;-72
2022/11/10 04:36:23;;;;;;;13.32;2.70;;;10.50;87.40;;;;;;4898403;29;20497;-71
2022/11/10 04:38:48;;;;;;;8.45;2.20;;;10.50;87.40;;;;;;4881654;29;20088;-72
2022/11/10 04:41:15;;;;;;;14.35;2.65;;;10.50;88.00;;;;;;4881511;29;20040;-72
2022/11/10 04:43:40;;;;;;;9.07;2.50;;;10.60;87.40;;;;;;4881283;29;20091;-72
2022/11/10 04:46:09;;;;;;;11.73;2.47;;;10.60;87.50;;;;;;4898148;29;20517;-72
2022/11/10 04:48:35;;;;;;;10.43;2.60;;;10.60;87.50;;;;;;4898297;29;20028;-72
2022/11/10 04:51:05;;;;;;;11.45;2.45;;;10.60;87.40;;;;;;4898200;29;20055;-71
2022/11/10 04:53:31;;;;;;;8.30;2.20;;;10.60;87.40;;;;;;4898133;29;20040;-71
2022/11/10 04:55:57;;;;;;;5.97;1.92;;;10.60;87.60;;;;;;4898190;29;20129;-71
2022/11/10 04:58:22;;;;;;;9.20;2.60;;;10.60;87.30;;;;;;4881146;29;20021;-72
2022/11/10 05:00:48;;;;;;;8.90;2.33;;;10.70;87.30;;;;;;4897428;29;20034;-72
2022/11/10 05:03:14;;;;;;;10.20;2.20;;;10.70;87.30;;;;;;4897746;29;20033;-72
2022/11/10 05:05:40;;;;;;;12.57;2.40;;;10.70;87.30;;;;;;4897955;29;20099;-72
2022/11/10 05:08:06;;;;;;;11.63;2.42;;;10.70;87.30;;;;;;4881032;29;20023;-72
2022/11/10 05:10:33;;;;;;;9.43;2.20;;;10.70;87.30;;;;;;4881055;29;20021;-71
2022/11/10 05:12:59;;;;;;;11.73;2.53;;;10.70;87.30;;;;;;4897645;29;20076;-72
2022/11/10 05:15:25;;;;;;;11.13;2.33;;;10.70;87.30;;;;;;4880727;29;20064;-72
2022/11/10 05:17:52;;;;;;;8.60;2.00;;;10.60;87.30;;;;;;4881252;29;20362;-71
2022/11/10 05:20:19;;;;;;;8.15;2.40;;;10.60;87.30;;;;;;4880926;29;20035;-71
2022/11/10 05:25:34;;;;;;;10.27;2.30;;;10.60;87.40;;;;;;4897792;29;20040;-75
2022/11/10 05:28:00;;;;;;;7.22;1.80;;;10.60;87.40;;;;;;4897692;29;20044;-71
2022/11/10 05:30:26;;;;;;;9.35;2.15;;;10.60;87.40;;;;;;4897591;29;20032;-72
2022/11/10 05:32:52;;;;;;;8.57;2.10;;;10.60;87.40;;;;;;4897651;29;20067;-72
2022/11/10 05:35:17;;;;;;;7.07;2.20;;;10.60;87.50;;;;;;4880598;29;20039;-72
2022/11/10 05:37:43;;;;;;;10.50;2.22;;;10.60;87.50;;;;;;4894631;29;20064;-73
2022/11/10 05:40:09;;;;;;;7.57;1.90;;;10.60;87.50;;;;;;4877779;29;20036;-73
2022/11/10 05:42:42;;;;;;;10.15;2.35;;;10.60;87.60;;;;;;4897264;29;20052;-73
2022/11/10 05:45:08;;;;;;;7.05;2.40;;;10.60;87.60;;;;;;4897216;29;20128;-72
2022/11/10 05:47:36;;;;;;;8.82;2.03;;;10.50;87.60;;;;;;4897393;29;20480;-73
2022/11/10 05:50:02;;;;;;;9.23;1.88;;;10.50;87.70;;;;;;4880344;29;20108;-72
2022/11/10 05:52:27;;;;;;;13.23;2.85;;;10.50;87.70;;;;;;4897396;29;20103;-72
2022/11/10 05:54:54;;;;;;;7.03;1.73;;;10.40;87.70;;;;;;4897156;29;20060;-72
2022/11/10 05:57:20;;;;;;;10.15;2.45;;;10.40;87.80;;;;;;4897022;29;20523;-72
2022/11/10 05:59:45;;;;;;;5.95;1.90;;;10.40;87.80;;;;;;4897090;29;20099;-72
2022/11/10 06:02:11;;;;;;;8.50;2.05;;;10.40;87.80;;;;;;4880200;29;20017;-72
2022/11/10 06:04:36;;;;;;;8.27;2.08;;;10.40;87.80;;;;;;4896743;29;20036;-72
2022/11/10 06:07:02;;;;;;;7.78;1.95;;;10.40;87.90;;;;;;4896933;29;20044;-72
2022/11/10 06:09:28;;;;;;;7.90;2.30;;;10.40;87.90;;;;;;4896839;29;20020;-72
2022/11/10 06:11:54;;;;;;;9.05;2.35;;;10.40;87.90;;;;;;4896654;29;20044;-73
2022/11/10 06:14:19;;;;;;;9.05;2.20;;;10.40;88.00;;;;;;4879606;29;20036;-73
2022/11/10 06:16:45;;;;;;;10.95;2.40;;;10.40;88.00;;;;;;4896781;29;20397;-73
2022/11/10 06:19:10;;;;;;;7.47;2.30;;;10.40;88.00;;;;;;4896759;29;20038;-71
2022/11/10 06:21:36;;;;;;;8.02;2.13;;;10.40;88.00;;;;;;4879901;29;20029;-72
2022/11/10 06:24:01;;;;;;;7.28;2.00;;;10.40;88.00;;;;;;4879742;29;20656;-72
2022/11/10 06:26:27;;;;;;;7.95;2.20;;;10.40;88.00;;;;;;4896738;29;20513;-72
2022/11/10 06:28:52;;;;;;;12.60;2.15;;;10.30;88.00;;;;;;4879944;29;20021;-72
2022/11/10 06:31:18;;;;;;;10.75;2.50;;;10.40;88.10;;;;;;4879813;29;20037;-72
2022/11/10 06:33:43;;;;;;;15.15;2.35;;;10.40;88.10;;;;;;4896469;29;20033;-73
2022/11/10 06:36:09;;;;;;;10.30;2.50;;;10.30;88.10;;;;;;4879778;29;20037;-72
2022/11/10 06:38:35;;;;;;;9.43;2.28;;;10.30;88.10;;;;;;4879685;29;20029;-72
2022/11/10 06:41:00;;;;;;;11.43;2.28;;;10.30;88.10;;;;;;4896683;29;20032;-72
2022/11/10 06:43:26;;;;;;;10.82;2.35;;;10.40;88.20;;;;;;4896499;29;20039;-72
2022/11/10 06:45:51;;;;;;;10.75;1.90;;;10.30;88.10;;;;;;4879718;29;20064;-71
2022/11/10 06:48:17;;;;;;;7.63;2.25;;;10.30;88.10;;;;;;4896253;29;20017;-71
2022/11/10 06:50:43;;;;;;;6.55;2.00;;;10.30;88.20;;;;;;4895999;29;20429;-72
2022/11/10 06:53:09;;;;;;;7.82;2.10;;;10.30;88.20;;;;;;4879447;29;20164;-72
2022/11/10 06:55:35;;;;;;;6.57;1.85;;;10.30;88.20;;;;;;4879580;29;20028;-73
2022/11/10 06:58:00;;;;;;;10.93;2.30;;;10.30;88.20;;;;;;4896579;29;20477;-72
2022/11/10 07:00:28;;;;;;;11.25;2.20;;;10.30;88.20;;;;;;4896315;29;20129;-72
2022/11/10 07:03:14;;;;;;;8.30;2.10;;;10.30;88.20;;;;;;4896210;29;20464;-73
2022/11/10 07:05:39;;;;;;;8.80;2.25;;;10.40;88.20;;;;;;4896444;29;20094;-72
2022/11/10 07:08:08;;;;;;;7.07;2.25;;;10.40;88.20;;;;;;4896419;29;20081;-72
2022/11/10 07:10:34;;;;;;;11.40;2.33;;;10.40;88.20;;;;;;4896029;29;20024;-73
2022/11/10 07:13:01;;;;;;;8.88;2.50;;;10.40;88.10;;;;;;4895955;29;20060;-71
2022/11/10 07:15:28;;;;;;;8.02;1.85;;;10.40;88.20;;;;;;4878981;29;20397;-71
2022/11/10 07:17:54;;;;;;;8.25;2.13;;;10.40;88.70;;;;;;4896121;29;20029;-71
2022/11/10 07:20:20;;;;;;;9.52;1.92;;;10.40;88.10;;;;;;4895911;29;20033;-70
2022/11/10 07:22:45;;;;;;;8.27;2.30;;;10.40;88.10;;;;;;4896120;29;20029;-70
2022/11/10 07:25:11;;;;;;;9.32;2.33;;;10.40;88.10;;;;;;4880917;29;20033;-71
2022/11/10 07:27:36;;;;;;;7.85;2.00;;;10.50;88.00;;;;;;4883025;29;20020;-71
2022/11/10 07:30:03;;;;;;;7.65;1.80;;;10.50;88.00;;;;;;4899781;29;20381;-70
2022/11/10 07:32:29;;;;;;;8.65;2.00;;;10.50;88.00;;;;;;4899623;29;20035;-70
2022/11/10 07:34:54;;;;;;;6.45;1.95;;;10.50;88.00;;;;;;4882636;29;20116;-70
2022/11/10 07:37:20;;;;;;;10.85;2.20;;;10.50;88.00;;;;;;4899549;29;20132;-72
2022/11/10 07:39:45;;;;;;;7.82;1.98;;;10.60;87.90;;;;;;4882753;29;20031;-71
2022/11/10 07:42:11;;;;;;;8.95;2.03;;;10.60;87.90;;;;;;4899733;29;20108;-70
2022/11/10 07:44:36;;;;;;;10.18;2.20;;;10.60;87.90;;;;;;4899529;29;20028;-71
2022/11/10 07:47:02;;;;;;;7.68;2.00;;;10.60;87.80;;;;;;4882763;29;20028;-71
2022/11/10 07:49:27;;;;;;;9.40;2.50;;;10.60;87.80;;;;;;4899497;29;20429;-71
2022/11/10 07:51:53;;;;;;;8.48;2.33;;;10.70;87.80;;;;;;4899375;29;20062;-72
2022/11/10 07:54:18;;;;;;;8.43;1.98;;;10.70;87.80;;;;;;4899301;29;20048;-71
2022/11/10 07:56:44;;;;;;;8.27;1.92;;;10.70;87.70;;;;;;4882391;29;20016;-71
2022/11/10 07:59:10;;;;;;;12.45;2.72;;;10.80;87.70;;;;;;4899377;29;20031;-70
2022/11/10 08:01:35;;;;;;;11.90;2.72;;;10.80;87.70;;;;;;4899195;29;20499;-72
2022/11/10 08:04:01;;;;;;;9.45;2.20;;;10.80;87.60;;;;;;4882022;29;20021;-71
2022/11/10 08:06:26;;;;;;;9.15;2.20;;;10.80;87.60;;;;;;4882043;29;20020;-71
2022/11/10 08:08:52;;;;;;;13.32;2.25;;;10.90;87.60;;;;;;4899028;29;20032;-71
2022/11/10 08:11:17;;;;;;;10.35;2.20;;;10.90;87.50;;;;;;4898975;29;20100;-73
2022/11/10 08:13:43;;;;;;;9.10;2.30;;;10.90;87.50;;;;;;4899257;29;20036;-72
2022/11/10 08:16:08;;;;;;;10.07;2.20;;;11.00;87.40;;;;;;4882031;29;20032;-72
2022/11/10 08:18:34;;;;;;;8.25;2.17;;;11.00;87.30;;;;;;4898742;29;20052;-71
2022/11/10 08:21:00;;;;;;;10.70;2.42;;;11.10;87.30;;;;;;4881706;29;20035;-72
2022/11/10 08:23:27;;;;;;;10.65;2.30;;;11.10;87.30;;;;;;4898814;29;20028;-71
2022/11/10 08:25:56;;;;;;;10.45;2.38;;;11.10;87.30;;;;;;4898487;29;20025;-72
2022/11/10 08:28:22;;;;;;;9.32;2.20;;;11.20;87.30;;;;;;4898576;29;20017;-72
2022/11/10 08:30:48;;;;;;;10.23;2.38;;;11.20;87.20;;;;;;4881552;29;20104;-71
2022/11/10 08:33:15;;;;;;;10.68;2.20;;;11.20;87.10;;;;;;4898622;29;20544;-72
2022/11/10 08:35:43;;;;;;;8.88;2.35;;;11.30;87.10;;;;;;4898382;29;20029;-71
2022/11/10 08:38:13;;;;;;;8.73;2.10;;;11.30;87.00;;;;;;4881668;29;20021;-73
2022/11/10 08:40:39;;;;;;;8.02;2.15;;;11.40;87.00;;;;;;4898314;29;20029;-72
2022/11/10 08:43:09;;;;;;;6.90;2.10;;;11.40;87.00;;;;;;4881466;29;20505;-72
2022/11/10 08:45:35;;;;;;;8.07;2.53;;;11.50;87.00;;;;;;4898348;29;20036;-73
2022/11/10 08:48:04;;;;;;;11.82;2.67;;;11.50;86.80;;;;;;4881359;29;20028;-71
2022/11/10 08:50:30;;;;;;;11.45;2.30;;;11.60;86.80;;;;;;4898083;29;20040;-72
2022/11/10 08:52:55;;;;;;;9.50;2.40;;;11.60;86.70;;;;;;4898066;29;20029;-72
2022/11/10 08:55:21;;;;;;;9.68;2.28;;;11.70;86.60;;;;;;4898203;29;20031;-72
2022/11/10 08:57:47;;;;;;;10.82;2.88;;;11.80;86.50;;;;;;4898299;29;20393;-74
2022/11/10 09:00:15;;;;;;;7.45;2.05;;;11.80;86.30;;;;;;4881350;29;20032;-71
2022/11/10 09:02:40;;;;;;;11.00;2.60;;;11.90;86.30;;;;;;4898010;29;20116;-71
2022/11/10 09:05:07;;;;;;;8.02;2.40;;;11.90;86.20;;;;;;4898038;29;20422;-72
2022/11/10 09:07:46;;;;;;;11.60;2.47;;;12.00;86.20;;;;;;4897988;29;20020;-71
2022/11/10 09:10:13;;;;;;;12.07;2.83;;;12.00;86.10;;;;;;4881133;29;20480;-71
2022/11/10 09:12:39;;;;;;;7.50;2.00;;;12.00;86.10;;;;;;4897705;29;20041;-72
2022/11/10 09:15:06;;;;;;;8.77;2.30;;;12.00;86.10;;;;;;4897827;29;20104;-71
2022/11/10 09:17:31;;;;;;;8.00;2.38;;;12.10;86.20;;;;;;4898100;29;20468;-71
2022/11/10 09:19:57;;;;;;;8.30;2.25;;;12.10;86.10;;;;;;4897858;29;20129;-72
2022/11/10 09:22:23;;;;;;;11.05;2.40;;;12.10;86.10;;;;;;4880791;29;20100;-71
2022/11/10 09:24:48;;;;;;;10.80;2.60;;;12.10;86.00;;;;;;4880819;29;20028;-72
2022/11/10 09:27:14;;;;;;;13.00;2.85;;;12.20;86.00;;;;;;4880880;29;20025;-72
2022/11/10 09:29:39;;;;;;;11.90;2.28;;;12.20;85.90;;;;;;4897526;29;20072;-72
2022/11/10 09:32:05;;;;;;;9.15;2.63;;;12.30;85.90;;;;;;4880796;29;20614;-72
2022/11/10 09:34:30;;;;;;;7.93;2.00;;;12.30;85.80;;;;;;4897558;29;20033;-71
2022/11/10 09:36:56;;;;;;;11.13;2.03;;;12.30;85.70;;;;;;4897563;29;20021;-72
2022/11/10 09:39:22;;;;;;;11.88;2.45;;;12.40;85.70;;;;;;4897528;29;20115;-72
2022/11/10 09:41:47;;;;;;;6.80;2.13;;;12.40;85.60;;;;;;4880630;29;20488;-72
2022/11/10 09:44:22;;;;;;;9.02;2.45;;;12.50;85.60;;;;;;4897498;29;20119;-71
2022/11/10 09:46:52;;;;;;;13.63;2.38;;;12.50;85.50;;;;;;4880312;29;20112;-72
2022/11/10 09:49:30;;;;;;;8.07;2.72;;;12.50;85.40;;;;;;4880533;29;20016;-71
2022/11/10 09:51:57;;;;;;;11.55;2.20;;;12.60;85.40;;;;;;4897476;29;20392;-72
2022/11/10 09:54:52;;;;;;;8.32;2.70;;;12.60;85.30;;;;;;4897236;29;20049;-72
2022/11/10 09:57:23;;;;;;;10.13;2.38;;;12.70;85.20;;;;;;4896489;29;20051;-72
2022/11/10 09:59:48;;;;;;;11.07;2.40;;;12.70;85.10;;;;;;4896909;29;20027;-73
2022/11/10 10:02:20;;;;;;;8.13;2.50;;;12.70;85.10;;;;;;4897079;29;20485;-72
2022/11/10 10:05:15;;;;;;;9.05;2.35;;;12.80;85.00;;;;;;4896904;29;20523;-73
2022/11/10 10:07:50;;;;;;;8.50;2.10;;;12.80;84.90;;;;;;4897077;29;20028;-73
2022/11/10 10:10:21;;;;;;;9.00;2.17;;;12.90;84.90;;;;;;4880429;29;20130;-73
2022/11/10 10:12:58;;;;;;;10.00;2.45;;;12.90;84.70;;;;;;4896975;29;20100;-72
2022/11/10 10:15:33;;;;;;;10.35;2.50;;;13.00;84.70;;;;;;4880137;29;20079;-72
2022/11/10 10:18:12;;;;;;;12.48;2.30;;;13.10;84.60;;;;;;4896894;29;20025;-73
2022/11/10 10:20:40;;;;;;;13.23;2.95;;;13.10;84.60;;;;;;4896923;29;20131;-72
2022/11/10 10:23:33;;;;;;;11.73;2.30;;;13.20;84.60;;;;;;4896708;29;20441;-73
2022/11/10 10:26:00;;;;;;;8.63;2.30;;;13.20;84.40;;;;;;4897027;29;20029;-73
2022/11/10 10:28:38;;;;;;;10.13;2.50;;;13.30;84.30;;;;;;4896704;29;20028;-72
2022/11/10 10:31:14;;;;;;;12.63;2.40;;;13.40;84.20;;;;;;4896658;29;20072;-73
2022/11/10 10:33:40;;;;;;;9.32;2.03;;;13.40;84.20;;;;;;4896734;29;20055;-73
2022/11/10 10:36:16;;;;;;;7.18;2.22;;;13.50;84.10;;;;;;4896563;29;20057;-73
2022/11/10 10:38:45;;;;;;;9.35;1.90;;;13.50;83.90;;;;;;4879304;29;20044;-73
2022/11/10 10:41:26;;;;;;;11.02;2.53;;;13.60;83.70;;;;;;4879694;29;20516;-73
2022/11/10 10:43:55;;;;;;;9.23;2.60;;;13.70;83.50;;;;;;4896212;29;20057;-72
2022/11/10 10:46:25;;;;;;;8.52;2.13;;;13.70;83.30;;;;;;4896465;29;20040;-73
2022/11/10 10:49:10;;;;;;;9.75;2.20;;;13.70;83.20;;;;;;4896369;29;20035;-73
2022/11/10 10:51:35;;;;;;;9.02;2.03;;;13.80;83.10;;;;;;4879671;29;20021;-72
2022/11/10 10:54:01;;;;;;;10.27;2.08;;;13.80;83.00;;;;;;4896417;29;20033;-74
2022/11/10 10:56:31;;;;;;;11.73;2.10;;;13.90;82.90;;;;;;4896686;29;20035;-73
2022/11/10 10:59:01;;;;;;;9.57;2.58;;;13.90;82.60;;;;;;4896566;29;20028;-74
2022/11/10 11:01:37;;;;;;;9.57;2.17;;;14.00;82.40;;;;;;4900461;29;20587;-72
2022/11/10 11:04:25;;;;;;;9.13;1.73;;;14.00;82.20;;;;;;4900484;29;20234;-74
2022/11/10 11:06:57;;;;;;;11.05;3.38;;;14.10;82.10;;;;;;4883431;29;20029;-74
2022/11/10 11:09:25;;;;;;;10.25;2.47;;;14.10;82.00;;;;;;4900270;29;20468;-73
2022/11/10 11:12:12;;;;;;;9.13;2.10;;;14.20;81.90;;;;;;4883128;29;20055;-72
2022/11/10 11:14:37;;;;;;;8.75;2.03;;;14.20;81.70;;;;;;4899945;29;20476;-73
2022/11/10 11:17:16;;;;;;;8.48;2.08;;;14.30;81.50;;;;;;4883176;29;20067;-71
2022/11/10 11:19:42;;;;;;;9.25;1.80;;;14.40;81.30;;;;;;4883016;29;20172;-71
2022/11/10 11:22:32;;;;;;;12.07;2.50;;;14.40;81.10;;;;;;4899598;29;20080;-72
2022/11/10 11:25:26;;;;;;;8.00;2.22;;;14.50;81.10;;;;;;4899583;29;20516;-72
2022/11/10 11:28:33;;;;;;;7.80;1.95;;;14.60;80.90;;;;;;4882651;29;20039;-72
2022/11/10 11:31:12;;;;;;;9.52;2.08;;;14.60;80.60;;;;;;4899730;29;20696;-71
2022/11/10 11:34:02;;;;;;;7.90;2.20;;;14.60;80.40;;;;;;4899644;29;20200;-73
2022/11/10 11:37:24;;;;;;;12.18;2.17;;;14.60;80.10;;;;;;4882696;29;20084;-73
2022/11/10 11:40:26;;;;;;;9.63;2.55;;;14.50;80.20;;;;;;4822768;29;20030;-73
2022/11/10 11:42:58;;;;;;;7.88;1.98;;;14.50;80.10;;;;;;4899385;29;20131;-72
2022/11/10 11:45:50;;;;;;;8.75;1.70;;;14.60;80.10;;;;;;4882302;29;20392;-73
2022/11/10 11:48:53;;;;;;;6.72;2.33;;;14.70;80.10;;;;;;4899536;29;20031;-72
2022/11/10 11:51:32;;;;;;;6.90;1.80;;;14.70;80.00;;;;;;4899494;29;20080;-72
2022/11/10 11:54:28;;;;;;;5.40;1.88;;;14.70;80.00;;;;;;4899459;29;20024;-74
2022/11/10 11:57:07;;;;;;;9.18;2.03;;;14.70;79.80;;;;;;4899422;29;20031;-73
2022/11/10 12:00:01;;;;;;;7.03;2.05;;;14.80;79.90;;;;;;4899243;29;20039;-73
2022/11/10 12:02:57;;;;;;;7.97;1.80;;;14.80;79.60;;;;;;4899341;29;20021;-72
2022/11/10 12:05:48;;;;;;;8.73;2.33;;;15.00;79.60;;;;;;4899208;29;20020;-73
2022/11/10 12:08:35;;;;;;;5.38;1.88;;;15.10;79.30;;;;;;4899373;29;20028;-73
2022/11/10 12:11:33;;;;;;;7.60;1.90;;;15.20;79.10;;;;;;4881715;29;20024;-73
2022/11/10 12:14:36;;;;;;;7.03;1.83;;;15.20;78.90;;;;;;4831735;29;20058;-74
2022/11/10 12:17:22;;;;;;;7.13;2.50;;;15.30;78.60;;;;;;4898847;29;20501;-73
2022/11/10 12:20:00;;;;;;;8.38;2.20;;;15.30;78.20;;;;;;4882160;29;20397;-73
2022/11/10 12:22:34;;;;;;;8.40;1.73;;;15.30;77.50;;;;;;4899086;29;20043;-74
2022/11/10 12:25:15;;;;;;;9.60;1.85;;;15.30;77.70;;;;;;4881755;29;20041;-73
2022/11/10 12:27:51;;;;;;;9.73;2.20;;;15.40;77.70;;;;;;4898811;29;20137;-73
2022/11/10 12:30:17;;;;;;;9.45;2.13;;;15.40;77.60;;;;;;4881823;29;20028;-73
2022/11/10 12:32:52;;;;;;;6.57;1.95;;;15.50;77.30;;;;;;4898616;29;20655;-72
2022/11/10 12:35:32;;;;;;;6.63;1.90;;;15.50;77.10;;;;;;4898575;29;20032;-72
2022/11/10 12:38:05;;;;;;;8.40;1.75;;;15.50;77.00;;;;;;4881835;29;20025;-73
2022/11/10 12:40:37;;;;;;;8.38;1.92;;;15.50;77.10;;;;;;4881459;29;20482;-73
2022/11/10 12:43:10;;;;;;;8.30;1.60;;;15.60;77.30;;;;;;4898439;29;20115;-72
2022/11/10 12:45:44;;;;;;;8.13;1.73;;;15.60;77.20;;;;;;4881919;29;20127;-72
2022/11/10 12:48:14;;;;;;;8.52;2.40;;;15.60;77.20;;;;;;4898369;29;20092;-73
2022/11/10 12:50:43;;;;;;;7.50;1.77;;;15.60;76.80;;;;;;4898461;29;20040;-72
2022/11/10 12:53:39;;;;;;;7.63;1.67;;;15.50;76.90;;;;;;4898297;29;20047;-73
2022/11/10 12:56:19;;;;;;;7.13;1.73;;;15.50;76.90;;;;;;4883176;29;20115;-72
2022/11/10 12:58:45;;;;;;;7.20;1.55;;;15.60;76.90;;;;;;4898401;29;20063;-72
2022/11/10 13:01:15;;;;;;;5.50;1.50;;;15.50;76.90;;;;;;4898379;29;20407;-73
2022/11/10 13:03:53;;;;;;;7.90;1.63;;;15.40;77.00;;;;;;4898083;29;20158;-72
2022/11/10 13:06:38;;;;;;;6.13;1.58;;;15.40;76.90;;;;;;4898151;29;20103;-72
2022/11/10 13:09:03;;;;;;;7.10;1.80;;;15.50;76.90;;;;;;4898135;29;20081;-71